This is the latest recevied weather packets stored in our database for station/object KM6LYW-3. If no packets are shown the sender has not sent any weather packets the latest 10 day(s).
| Time | Temp. | Humidity | Pressure | Rain* | Wind** | Luminosity | Snow |
|---|---|---|---|---|---|---|---|
| 1788195606 | 25° C | 42% | 1013 hPa | 0 mm | - | - | - |
| 1788192005 | 20° C | 53% | 1014.2 hPa | 0 mm | - | - | - |
| 1788188405 | 16.11° C | 66% | 1014.8 hPa | 0 mm | - | - | - |
| 1788184805 | 14.44° C | 67% | 1014.3 hPa | 0 mm | - | - | - |
| 1788177606 | 15° C | 66% | 1014.2 hPa | 0 mm | - | - | - |
| 1788174006 | 15° C | 65% | 1014.4 hPa | 0 mm | - | - | - |
| 1788170406 | 15.56° C | 62% | 1014 hPa | 0 mm | - | - | - |
| 1788166806 | 16.11° C | 61% | 1014.4 hPa | 0 mm | - | - | - |
| 1788163205 | 17.22° C | 56% | 1014.3 hPa | 0 mm | - | - | - |
| 1788159605 | 18.33° C | 52% | 1013.9 hPa | 0 mm | - | - | - |
| 1788156005 | 18.89° C | 48% | 1013.9 hPa | 0 mm | - | - | - |
| 1788152405 | 20° C | 45% | 1013.7 hPa | 0 mm | - | - | - |
| 1788148805 | 22.22° C | 39% | 1012.9 hPa | 0 mm | - | - | - |
| 1788098406 | 15° C | 55% | 1016 hPa | 0 mm | - | - | - |
| 1788091206 | 16.11° C | 53% | 1015.3 hPa | 0 mm | - | - | - |
| 1788087606 | 16.11° C | 53% | 1015.4 hPa | 0 mm | - | - | - |
| 1788084006 | 15.56° C | 53% | 1015.5 hPa | 0 mm | - | - | - |
| 1788080406 | 16.11° C | 52% | 1015.5 hPa | 0 mm | - | - | - |
| 1788076806 | 16.67° C | 54% | 1015.5 hPa | 0 mm | - | - | - |
| 1788073206 | 17.22° C | 51% | 1015.7 hPa | 0 mm | - | - | - |
| 1788069605 | 18.33° C | 50% | 1015.5 hPa | 0 mm | - | - | - |
| 1788066005 | 19.44° C | 45% | 1015.4 hPa | 0 mm | - | - | - |
| 1788026405 | 27.78° C | 29% | 1015.5 hPa | 0 mm | - | - | - |
| 1788022806 | 26.11° C | 30% | 1015.5 hPa | 0 mm | - | - | - |
| 1788008405 | 16.11° C | 83% | 1017 hPa | 0 mm | - | - | - |
* Rain latest hour (hover to see other rain measurements)
** Current wind speed in m/s (hover to see current wind gust speed)